createdAt,value
2023-11-13T00:00:35.132Z,12.68
2023-11-13T00:03:37.390Z,9.15
2023-11-13T00:06:39.535Z,8.20
2023-11-13T00:09:41.845Z,20.08
2023-11-13T00:12:44.087Z,11.88
2023-11-13T00:15:46.519Z,10.48
2023-11-13T00:18:49.009Z,7.53
2023-11-13T00:21:51.242Z,5.25
2023-11-13T00:24:53.447Z,5.97
2023-11-13T00:27:55.743Z,4.35
2023-11-13T00:30:57.846Z,9.13
2023-11-13T00:34:00.166Z,4.63
2023-11-13T00:37:02.280Z,5.75
2023-11-13T00:40:06.356Z,6.68
2023-11-13T00:43:09.425Z,7.93
2023-11-13T00:46:11.877Z,9.85
2023-11-13T00:49:14.005Z,7.40
2023-11-13T00:52:16.104Z,4.45
2023-11-13T00:55:18.467Z,8.27
2023-11-13T00:58:23.258Z,6.40
2023-11-13T01:01:27.745Z,5.85
2023-11-13T01:04:30.714Z,5.53
2023-11-13T01:07:32.871Z,6.55
2023-11-13T01:10:34.922Z,6.07
2023-11-13T01:13:38.214Z,8.35
2023-11-13T01:16:41.206Z,7.30
2023-11-13T01:19:43.635Z,8.68
2023-11-13T01:22:46.713Z,7.15
2023-11-13T01:25:49.803Z,9.82
2023-11-13T01:28:51.961Z,3.38
2023-11-13T01:31:54.071Z,4.43
2023-11-13T01:34:56.202Z,6.60
2023-11-13T01:37:59.315Z,4.30
2023-11-13T01:41:02.111Z,3.72
2023-11-13T01:44:08.126Z,7.15
2023-11-13T01:47:10.264Z,5.82
2023-11-13T01:50:13.795Z,6.00
2023-11-13T01:53:20.210Z,7.50
2023-11-13T01:56:26.137Z,4.50
2023-11-13T01:59:28.446Z,5.32
2023-11-13T02:02:30.939Z,5.47
2023-11-13T02:05:33.489Z,6.60
2023-11-13T02:08:35.698Z,9.85
2023-11-13T02:11:38.902Z,6.30
2023-11-13T02:14:40.971Z,10.45
2023-11-13T02:18:02.405Z,10.35
2023-11-13T02:21:05.140Z,10.10
2023-11-13T02:24:08.544Z,6.88
2023-11-13T02:27:11.009Z,4.43
2023-11-13T02:30:13.384Z,9.50
2023-11-13T02:33:15.906Z,8.55
2023-11-13T02:36:18.358Z,6.70
2023-11-13T02:39:21.347Z,5.03
2023-11-13T02:42:24.121Z,4.07
2023-11-13T02:45:27.271Z,5.97
2023-11-13T02:48:29.753Z,3.85
2023-11-13T02:51:31.875Z,5.20
2023-11-13T02:54:33.963Z,7.72
2023-11-13T02:57:36.378Z,5.55
2023-11-13T03:00:38.630Z,9.68
2023-11-13T03:03:41.104Z,7.25
2023-11-13T03:06:43.273Z,6.97
2023-11-13T03:09:45.444Z,11.00
2023-11-13T03:12:47.577Z,7.85
2023-11-13T03:15:49.781Z,5.03
2023-11-13T03:18:51.955Z,5.53
2023-11-13T03:21:54.158Z,4.45
2023-11-13T03:24:56.348Z,3.38
2023-11-13T03:27:58.508Z,6.80
2023-11-13T03:31:00.685Z,6.95
2023-11-13T03:34:02.886Z,5.47
2023-11-13T03:37:06.376Z,12.77
2023-11-13T03:40:09.310Z,6.15
2023-11-13T03:43:11.551Z,7.75
2023-11-13T03:46:13.702Z,4.47
2023-11-13T03:49:15.931Z,6.05
2023-11-13T03:52:18.175Z,12.55
2023-11-13T03:55:20.520Z,10.40
2023-11-13T03:58:22.816Z,8.90
2023-11-13T04:01:24.870Z,4.78
2023-11-13T04:04:27.251Z,6.70
2023-11-13T04:07:29.438Z,6.53
2023-11-13T04:10:32.763Z,5.63
2023-11-13T04:13:36.174Z,7.40
2023-11-13T04:16:38.396Z,7.72
2023-11-13T04:19:40.608Z,9.57
2023-11-13T04:22:42.901Z,10.43
2023-11-13T04:25:47.500Z,9.02
2023-11-13T04:28:49.703Z,4.68
2023-11-13T04:31:51.821Z,3.70
2023-11-13T04:34:54.206Z,4.97
2023-11-13T04:37:56.442Z,5.70
2023-11-13T04:40:59.193Z,8.65
2023-11-13T04:44:02.113Z,8.15
2023-11-13T04:47:04.577Z,6.35
2023-11-13T04:50:07.730Z,8.48
2023-11-13T04:53:09.774Z,12.38
2023-11-13T04:56:12.722Z,7.07
2023-11-13T04:59:14.939Z,6.20
2023-11-13T05:02:17.373Z,8.00
2023-11-13T05:05:19.579Z,6.20
2023-11-13T05:08:21.709Z,4.60
2023-11-13T05:11:27.642Z,10.23
2023-11-13T05:14:30.612Z,10.02
2023-11-13T05:17:33.197Z,9.60
2023-11-13T05:20:50.064Z,14.15
2023-11-13T05:23:52.143Z,5.13
2023-11-13T05:26:57.075Z,6.30
2023-11-13T05:29:59.184Z,13.50
2023-11-13T05:33:02.704Z,9.88
2023-11-13T05:36:05.258Z,14.45
2023-11-13T05:39:08.907Z,11.45
2023-11-13T05:42:11.140Z,14.00
2023-11-13T05:45:16.274Z,14.88
2023-11-13T05:48:18.289Z,8.75
2023-11-13T05:51:22.009Z,19.10
2023-11-13T05:54:24.192Z,7.85
2023-11-13T05:57:26.259Z,7.90
2023-11-13T06:00:31.427Z,11.88
2023-11-13T06:03:33.600Z,10.75
2023-11-13T06:06:35.790Z,15.45
2023-11-13T06:09:39.712Z,14.02
2023-11-13T06:12:42.372Z,10.15
2023-11-13T06:15:44.437Z,15.02
2023-11-13T06:18:48.121Z,14.93
2023-11-13T06:21:52.742Z,8.32
2023-11-13T06:24:55.980Z,9.30
2023-11-13T06:27:58.378Z,10.57
2023-11-13T06:31:01.298Z,11.80
2023-11-13T06:34:04.318Z,7.78
2023-11-13T06:37:06.464Z,9.35
2023-11-13T06:40:10.521Z,8.77
2023-11-13T06:43:13.369Z,7.47
2023-11-13T06:46:17.632Z,5.10
2023-11-13T06:49:22.905Z,6.25
2023-11-13T06:52:25.257Z,7.05
2023-11-13T06:55:27.722Z,16.10
2023-11-13T06:58:30.189Z,5.47
2023-11-13T07:01:42.440Z,12.88
2023-11-13T07:04:45.149Z,8.93
2023-11-13T07:07:49.058Z,10.98
2023-11-13T07:10:52.342Z,7.20
2023-11-13T07:13:55.885Z,8.38
2023-11-13T07:16:58.340Z,12.27
2023-11-13T07:20:00.895Z,6.38
2023-11-13T07:23:04.010Z,9.82
2023-11-13T07:26:06.224Z,11.02
2023-11-13T07:29:08.595Z,6.18
2023-11-13T07:32:10.791Z,11.13
2023-11-13T07:35:13.727Z,6.63
2023-11-13T07:38:15.919Z,11.80
2023-11-13T07:41:18.377Z,16.33
2023-11-13T07:44:21.295Z,9.27
2023-11-13T07:47:27.993Z,15.13
2023-11-13T07:50:30.224Z,7.47
2023-11-13T07:53:39.891Z,19.75
2023-11-13T07:56:42.346Z,5.30
2023-11-13T07:59:45.112Z,13.73
2023-11-13T08:02:47.340Z,8.98
2023-11-13T08:05:50.249Z,9.68
2023-11-13T08:08:52.583Z,8.07
2023-11-13T08:11:55.685Z,7.97
2023-11-13T08:15:00.425Z,7.35
2023-11-13T08:18:02.793Z,6.32
2023-11-13T08:21:05.602Z,5.97
2023-11-13T08:24:08.185Z,8.45
2023-11-13T08:27:10.285Z,14.02
2023-11-13T08:30:16.297Z,5.20
2023-11-13T08:33:19.970Z,7.85
2023-11-13T08:36:23.319Z,5.32
2023-11-13T08:39:26.019Z,3.50
2023-11-13T08:42:29.085Z,4.72
2023-11-13T08:45:31.703Z,5.30
2023-11-13T08:48:34.737Z,5.03
2023-11-13T08:51:40.140Z,7.10
2023-11-13T08:54:42.344Z,5.25
2023-11-13T08:57:46.398Z,10.95
2023-11-13T09:00:49.746Z,7.20
2023-11-13T09:03:52.229Z,4.65
2023-11-13T09:06:54.456Z,6.50
2023-11-13T09:09:57.274Z,5.65
2023-11-13T09:13:01.204Z,8.85
2023-11-13T09:16:06.590Z,3.53
2023-11-13T09:19:09.584Z,2.50
2023-11-13T09:22:13.966Z,4.05
2023-11-13T09:25:17.354Z,3.28
2023-11-13T09:28:20.351Z,4.72
2023-11-13T09:31:23.068Z,2.72
2023-11-13T09:34:26.455Z,5.50
2023-11-13T09:37:29.103Z,4.18
2023-11-13T09:40:35.992Z,2.30
2023-11-13T09:43:40.700Z,3.28
2023-11-13T09:46:45.835Z,3.95
2023-11-13T09:50:04.015Z,10.60
2023-11-13T09:53:10.117Z,9.93
2023-11-13T09:56:16.629Z,3.35
2023-11-13T09:59:21.029Z,2.05
2023-11-13T10:02:25.359Z,2.08
2023-11-13T10:05:27.910Z,3.75
2023-11-13T10:08:32.941Z,1.08
2023-11-13T10:11:35.065Z,2.97
2023-11-13T10:14:37.327Z,5.07
2023-11-13T10:17:49.944Z,6.53
2023-11-13T10:20:52.265Z,2.20
2023-11-13T10:23:54.492Z,3.38
2023-11-13T10:26:57.087Z,2.10
2023-11-13T10:30:05.935Z,3.97
2023-11-13T10:33:18.469Z,1.42
2023-11-13T10:36:23.788Z,1.42
2023-11-13T10:39:38.866Z,1.60
2023-11-13T10:42:43.125Z,7.25
2023-11-13T10:45:47.304Z,4.38
2023-11-13T10:48:53.817Z,2.83
2023-11-13T10:52:01.746Z,4.85
2023-11-13T10:55:06.294Z,2.22
2023-11-13T10:58:08.552Z,5.68
2023-11-13T11:01:16.757Z,2.40
2023-11-13T11:04:23.224Z,8.52
2023-11-13T11:07:31.286Z,3.15
2023-11-13T11:10:34.780Z,1.77
2023-11-13T11:13:41.113Z,4.30
2023-11-13T11:17:07.155Z,3.28
2023-11-13T11:20:17.357Z,2.78
2023-11-13T11:23:23.592Z,3.10
2023-11-13T11:26:25.773Z,2.53
2023-11-13T11:29:45.836Z,4.03
2023-11-13T11:32:57.063Z,5.07
2023-11-13T11:36:01.589Z,3.10
2023-11-13T11:39:20.904Z,1.25
2023-11-13T11:42:25.242Z,1.25
2023-11-13T11:45:28.099Z,1.65
2023-11-13T11:48:30.460Z,0.95
2023-11-13T11:51:34.090Z,2.05
2023-11-13T11:54:36.783Z,1.63
2023-11-13T11:57:39.131Z,4.72
2023-11-13T12:00:41.300Z,2.53
2023-11-13T12:03:44.901Z,2.50
2023-11-13T12:06:50.379Z,7.90
2023-11-13T12:09:52.608Z,3.38
2023-11-13T12:12:54.894Z,2.03
2023-11-13T12:15:58.300Z,3.13
2023-11-13T12:19:00.434Z,2.58
2023-11-13T12:22:04.696Z,1.92
2023-11-13T12:25:09.070Z,1.08
2023-11-13T12:28:12.492Z,5.05
2023-11-13T12:31:21.613Z,6.97
2023-11-13T12:34:25.006Z,3.58
2023-11-13T12:37:28.552Z,4.63
2023-11-13T12:40:31.791Z,2.53
2023-11-13T12:43:34.070Z,2.35
2023-11-13T12:46:36.568Z,2.78
2023-11-13T12:49:39.646Z,7.18
2023-11-13T12:52:44.942Z,9.85
2023-11-13T12:55:47.481Z,3.30
2023-11-13T12:58:51.790Z,6.18
2023-11-13T13:01:53.962Z,2.78
2023-11-13T13:04:59.618Z,2.47
2023-11-13T13:08:03.252Z,3.50
2023-11-13T13:11:06.973Z,5.90
2023-11-13T13:14:10.292Z,3.58
2023-11-13T13:17:16.761Z,1.70
2023-11-13T13:20:20.866Z,3.65
2023-11-13T13:23:23.116Z,2.72
2023-11-13T13:26:25.610Z,3.78
2023-11-13T13:29:27.758Z,5.35
2023-11-13T13:32:32.226Z,2.13
2023-11-13T13:35:34.265Z,3.50
2023-11-13T13:38:36.332Z,3.03
2023-11-13T13:41:38.550Z,2.45
2023-11-13T13:44:41.008Z,9.00
2023-11-13T13:47:43.391Z,5.05
2023-11-13T13:50:45.748Z,3.08
2023-11-13T13:53:47.865Z,3.17
2023-11-13T13:56:50.006Z,6.72
2023-11-13T13:59:52.181Z,5.30
2023-11-13T14:02:56.057Z,3.28
2023-11-13T14:05:58.381Z,3.53
2023-11-13T14:09:02.812Z,9.88
2023-11-13T14:12:12.873Z,6.32
2023-11-13T14:15:21.760Z,8.88
2023-11-13T14:18:26.465Z,11.10
2023-11-13T14:21:30.070Z,8.60
2023-11-13T14:24:32.049Z,4.97
2023-11-13T14:27:34.446Z,7.70
2023-11-13T14:30:40.206Z,7.65
2023-11-13T14:33:45.271Z,9.85
2023-11-13T14:36:49.643Z,6.75
2023-11-13T14:39:51.807Z,7.18
2023-11-13T14:42:54.842Z,10.88
2023-11-13T14:45:57.885Z,8.75
2023-11-13T14:48:59.960Z,8.93
2023-11-13T14:52:05.902Z,11.20
2023-11-13T14:55:09.655Z,20.42
2023-11-13T14:58:15.651Z,16.95
2023-11-13T15:01:18.919Z,15.20
2023-11-13T15:04:21.126Z,13.00
2023-11-13T15:07:23.215Z,10.48
2023-11-13T15:10:28.351Z,10.02
2023-11-13T15:13:31.309Z,17.48
2023-11-13T15:16:36.647Z,17.75
2023-11-13T15:19:39.750Z,20.13
2023-11-13T15:25:50.877Z,17.63
2023-11-13T15:28:53.077Z,20.17
2023-11-13T15:31:55.831Z,10.60
2023-11-13T15:34:58.157Z,7.00
2023-11-13T15:38:02.732Z,17.98
2023-11-13T15:41:06.198Z,23.70
2023-11-13T15:44:08.599Z,21.88
2023-11-13T15:47:11.146Z,29.33
2023-11-13T15:50:17.740Z,18.95
2023-11-13T15:53:20.794Z,13.73
2023-11-13T15:56:22.933Z,24.98
2023-11-13T15:59:25.042Z,21.38
2023-11-13T16:02:27.342Z,23.20
2023-11-13T16:05:29.635Z,15.40
2023-11-13T16:08:32.829Z,21.30
2023-11-13T16:11:35.035Z,20.00
2023-11-13T16:14:38.774Z,16.90
2023-11-13T16:17:41.750Z,15.98
2023-11-13T16:20:44.196Z,20.67
2023-11-13T16:23:46.825Z,29.20
2023-11-13T16:26:53.898Z,32.22
2023-11-13T16:29:56.273Z,34.47
2023-11-13T16:33:05.482Z,33.58
2023-11-13T16:36:07.831Z,42.28
2023-11-13T16:39:11.473Z,38.83
2023-11-13T16:42:13.942Z,49.47
2023-11-13T16:45:19.596Z,42.00
2023-11-13T16:48:21.572Z,42.97
2023-11-13T16:51:23.666Z,45.53
2023-11-13T16:54:28.532Z,42.83
2023-11-13T16:57:30.804Z,50.20
2023-11-13T17:00:37.194Z,38.55
2023-11-13T17:03:39.388Z,48.67
2023-11-13T17:06:41.704Z,46.90
2023-11-13T17:09:43.999Z,44.70
2023-11-13T17:12:46.340Z,41.78
2023-11-13T17:15:48.564Z,41.17
2023-11-13T17:18:50.749Z,43.97
2023-11-13T17:21:53.293Z,36.40
2023-11-13T17:24:55.453Z,35.03
2023-11-13T17:27:57.478Z,35.38
2023-11-13T17:31:00.570Z,28.63
2023-11-13T17:34:02.702Z,38.15
2023-11-13T17:37:06.246Z,30.65
2023-11-13T17:40:09.504Z,30.10
2023-11-13T17:43:12.066Z,29.33
2023-11-13T17:46:14.182Z,34.17
2023-11-13T17:49:16.964Z,28.58
2023-11-13T17:52:19.813Z,39.30
2023-11-13T17:55:22.124Z,33.30
2023-11-13T17:58:25.166Z,32.60
2023-11-13T18:01:27.331Z,37.03
2023-11-13T18:04:29.666Z,37.25
2023-11-13T18:07:31.689Z,39.95
2023-11-13T18:10:33.907Z,36.28
2023-11-13T18:13:37.017Z,39.72
2023-11-13T18:16:39.411Z,34.92
2023-11-13T18:19:41.890Z,43.85
2023-11-13T18:22:45.779Z,42.75
2023-11-13T18:25:48.649Z,51.30
2023-11-13T18:28:51.437Z,53.80
2023-11-13T18:31:55.965Z,34.20
2023-11-13T18:34:58.174Z,35.30
2023-11-13T18:38:01.972Z,39.88
2023-11-13T18:41:04.136Z,37.92
2023-11-13T18:44:06.584Z,32.72
2023-11-13T18:47:08.815Z,33.60
2023-11-13T18:50:11.661Z,29.50
2023-11-13T18:53:13.703Z,36.65
2023-11-13T18:56:16.423Z,34.90
2023-11-13T18:59:19.177Z,35.20
2023-11-13T19:02:21.540Z,33.38
2023-11-13T19:05:23.678Z,33.08
2023-11-13T19:08:29.073Z,35.97
2023-11-13T19:11:31.089Z,40.92
2023-11-13T19:14:33.271Z,41.67
2023-11-13T19:17:39.575Z,37.83
2023-11-13T19:20:43.409Z,39.13
2023-11-13T19:23:45.556Z,46.65
2023-11-13T19:26:50.134Z,39.03
2023-11-13T19:29:52.253Z,33.63
2023-11-13T19:33:01.298Z,36.10
2023-11-13T19:36:07.239Z,49.60
2023-11-13T19:39:12.306Z,51.72
2023-11-13T19:42:14.425Z,38.35
2023-11-13T19:45:16.843Z,47.72
2023-11-13T19:48:20.585Z,56.85
2023-11-13T19:51:23.115Z,46.90
2023-11-13T19:54:25.647Z,52.45
2023-11-13T19:57:27.821Z,48.22
2023-11-13T20:00:30.179Z,52.13
2023-11-13T20:03:33.466Z,46.08
2023-11-13T20:06:35.746Z,50.03
2023-11-13T20:09:41.121Z,50.10
2023-11-13T20:12:43.812Z,50.55
2023-11-13T20:15:46.494Z,52.45
2023-11-13T20:18:48.697Z,43.85
2023-11-13T20:21:50.785Z,45.22
2023-11-13T20:24:52.918Z,47.80
2023-11-13T20:27:55.161Z,35.20
2023-11-13T20:30:57.321Z,47.72
2023-11-13T20:34:02.979Z,42.22
2023-11-13T20:37:07.203Z,47.05
2023-11-13T20:40:10.125Z,50.42
2023-11-13T20:43:12.232Z,47.28
2023-11-13T20:46:14.358Z,40.40
2023-11-13T20:49:16.731Z,38.97
2023-11-13T20:52:19.943Z,38.55
2023-11-13T20:55:22.275Z,36.67
2023-11-13T20:58:25.374Z,36.85
2023-11-13T21:01:27.570Z,39.15
2023-11-13T21:04:30.387Z,34.55
2023-11-13T21:07:33.044Z,36.15
2023-11-13T21:10:35.422Z,36.92
2023-11-13T21:13:37.730Z,37.08
2023-11-13T21:16:40.022Z,41.25
2023-11-13T21:19:43.263Z,38.97
2023-11-13T21:22:46.133Z,50.38
2023-11-13T21:25:48.557Z,48.33
2023-11-13T21:28:50.662Z,40.38
2023-11-13T21:31:55.071Z,49.10
2023-11-13T21:34:57.258Z,50.33
2023-11-13T21:37:59.284Z,45.05
2023-11-13T21:41:02.563Z,44.15
2023-11-13T21:44:05.253Z,52.65
2023-11-13T21:47:07.505Z,47.60
2023-11-13T21:50:14.157Z,40.53
2023-11-13T21:53:17.964Z,49.58
2023-11-13T21:56:19.983Z,41.83
2023-11-13T21:59:23.964Z,38.97
2023-11-13T22:02:26.631Z,55.42
2023-11-13T22:05:30.940Z,35.67
2023-11-13T22:08:32.984Z,34.95
2023-11-13T22:11:35.423Z,40.08
2023-11-13T22:14:37.660Z,43.03
2023-11-13T22:17:40.153Z,45.15
2023-11-13T22:20:42.687Z,42.47
2023-11-13T22:23:46.297Z,38.30
2023-11-13T22:26:48.555Z,31.20
2023-11-13T22:29:50.631Z,34.50
2023-11-13T22:32:52.858Z,32.08
2023-11-13T22:35:54.942Z,31.63
2023-11-13T22:38:58.508Z,27.40
2023-11-13T22:42:01.068Z,28.13
2023-11-13T22:45:04.023Z,27.65
2023-11-13T22:48:06.815Z,29.08
2023-11-13T22:51:08.878Z,27.73
2023-11-13T22:54:11.628Z,29.30
2023-11-13T22:57:13.749Z,39.25
2023-11-13T23:00:26.809Z,30.10
2023-11-13T23:03:30.074Z,32.28
2023-11-13T23:06:34.186Z,28.98
2023-11-13T23:09:38.672Z,36.00
2023-11-13T23:12:41.627Z,32.70
2023-11-13T23:15:46.598Z,37.75
2023-11-13T23:18:55.964Z,38.60
2023-11-13T23:22:03.795Z,35.00
2023-11-13T23:25:09.351Z,37.38
2023-11-13T23:28:11.704Z,43.20
2023-11-13T23:31:14.548Z,36.90
2023-11-13T23:34:17.717Z,38.00
2023-11-13T23:37:20.546Z,29.60
2023-11-13T23:40:22.615Z,30.83
2023-11-13T23:43:24.628Z,32.10
2023-11-13T23:46:26.772Z,23.50
2023-11-13T23:49:29.763Z,25.48
2023-11-13T23:52:31.917Z,30.70
2023-11-13T23:55:34.159Z,30.85
2023-11-13T23:58:36.330Z,34.55
